Главная страница
METAR-TAF:

METAR-TAF

Аэропорты :

Король Абдул-Азиз

Джидда, Саудовская Аравия

широта: 21-42N, долгота: 039-11E, высота над уровнем моря: 15 м

Текущие метеонаблюдения

Эта сводка был подготовлена 28 минут назад, в 01:00 UTC
Ветер 4 Узел от западно-северо-западный
Температура 30°C
Влажность 66%
Давление 1000 hPa
Видимость 10 км и более
Нет облачности ниже 1500 м, и нет кучево-дождевой облачности

METAR: OEJN 240100Z 30004KT CAVOK 30/23 Q1000 NOSIG

Время: 04:28 (01:28 UTC)

Прогноз

Эта сводка был подготовлена 2 часа и 28 минут назад, в 23:00 UTC
Прогноз действительный с 24-го 00 UTC до 25-го 06 UTC
Ветер 6 Узел от северо-северо-восточный
Видимость 10 км и более
небольшая облачность на высоте 4000 фута
изменения
С 24-го 06 UTC до 24-го 08 UTC
Ветер 14 Узел от западно-северо-западный

TAF: OEJN 232300Z 2400/2506 03006KT 9999 FEW040 BECMG 2406/2408 30014KT

Метеонаблюдения и прогнозы для более 4000 аэропортов (сводки METAR и TAF).

Имеющиеся станции представлены на карте желтыми и красными точками.

Чтобы увидеть название станции, наведите на нее мышь.

Затем щелкните, чтобы увидеть метеонаблюдения и метеопрогнозы.

Управление картой: чтобы увеличить масштаб, щелкните зеленые кнопки с черным крестиком; чтобы уменьшить масштаб, щелкните зеленую кнопку с тире; для просмотра соседних карт щелкайте зеленые стрелки.


METAR-TAF: